Terminal Aerodrome Forecast
Issued by NWS

Home | Current Version | Previous Version | Text Only | Print | Product List | Glossary On
Versions: 1 2 3 4 5 6 7 8 9 10 11 12 13 14 15 16 17 18 19 20 21 22
867
FTUS43 KAPX 281734
TAFAPN
TAF
KAPN 281734Z 2818/2918 22011G20KT P6SM BKN250
     FM282300 18009KT P6SM -SHRA OVC060
     FM290200 16011KT 6SM SHRA OVC030
     FM290600 17010KT P6SM -SHRA OVC030
     FM291000 20010KT P6SM -SHRA OVC035
     FM291200 21010KT P6SM BKN045
     FM291600 23010G18KT P6SM BKN035=

USA.gov is the U.S. government's official web portal to all federal, state and local government web resources and services.